sensor_id;sensor_type;location;lat;lon;timestamp;P1;durP1;ratioP1;P2;durP2;ratioP2
27365;SDS011;14837;57.148;-2.144;2022-07-29T00:01:03;10.38;;;9.40;;
27365;SDS011;14837;57.148;-2.144;2022-07-29T00:03:29;16.67;;;10.05;;
27365;SDS011;14837;57.148;-2.144;2022-07-29T00:05:56;15.15;;;9.52;;
27365;SDS011;14837;57.148;-2.144;2022-07-29T00:08:22;10.00;;;9.10;;
27365;SDS011;14837;57.148;-2.144;2022-07-29T00:10:50;12.57;;;11.23;;
27365;SDS011;14837;57.148;-2.144;2022-07-29T00:13:17;11.25;;;10.13;;
27365;SDS011;14837;57.148;-2.144;2022-07-29T00:15:57;10.10;;;8.57;;
27365;SDS011;14837;57.148;-2.144;2022-07-29T00:18:29;13.75;;;10.02;;
27365;SDS011;14837;57.148;-2.144;2022-07-29T00:20:56;11.15;;;9.82;;
27365;SDS011;14837;57.148;-2.144;2022-07-29T00:23:22;13.63;;;10.40;;
27365;SDS011;14837;57.148;-2.144;2022-07-29T00:25:49;10.60;;;9.60;;
27365;SDS011;14837;57.148;-2.144;2022-07-29T00:28:15;12.63;;;9.73;;
27365;SDS011;14837;57.148;-2.144;2022-07-29T00:30:42;11.35;;;9.30;;
27365;SDS011;14837;57.148;-2.144;2022-07-29T00:33:09;10.68;;;9.57;;
27365;SDS011;14837;57.148;-2.144;2022-07-29T00:35:36;12.60;;;10.23;;
27365;SDS011;14837;57.148;-2.144;2022-07-29T00:38:12;10.00;;;8.63;;
27365;SDS011;14837;57.148;-2.144;2022-07-29T00:40:39;15.43;;;10.20;;
27365;SDS011;14837;57.148;-2.144;2022-07-29T00:43:09;10.82;;;9.63;;
27365;SDS011;14837;57.148;-2.144;2022-07-29T00:45:36;9.88;;;8.88;;
27365;SDS011;14837;57.148;-2.144;2022-07-29T00:48:03;12.68;;;9.80;;
27365;SDS011;14837;57.148;-2.144;2022-07-29T00:50:31;9.90;;;8.95;;
27365;SDS011;14837;57.148;-2.144;2022-07-29T00:52:58;14.20;;;11.02;;
27365;SDS011;14837;57.148;-2.144;2022-07-29T00:55:25;14.65;;;9.80;;
27365;SDS011;14837;57.148;-2.144;2022-07-29T00:57:51;15.20;;;11.02;;
27365;SDS011;14837;57.148;-2.144;2022-07-29T01:00:22;13.02;;;10.57;;
27365;SDS011;14837;57.148;-2.144;2022-07-29T01:02:49;14.10;;;11.38;;
27365;SDS011;14837;57.148;-2.144;2022-07-29T01:05:17;12.77;;;10.60;;
27365;SDS011;14837;57.148;-2.144;2022-07-29T01:07:44;12.25;;;10.35;;
27365;SDS011;14837;57.148;-2.144;2022-07-29T01:10:12;11.65;;;10.45;;
27365;SDS011;14837;57.148;-2.144;2022-07-29T01:12:39;14.15;;;10.15;;
27365;SDS011;14837;57.148;-2.144;2022-07-29T01:15:07;13.88;;;11.30;;
27365;SDS011;14837;57.148;-2.144;2022-07-29T01:30:37;13.88;;;10.38;;
27365;SDS011;14837;57.148;-2.144;2022-07-29T01:33:09;12.52;;;9.63;;
27365;SDS011;14837;57.148;-2.144;2022-07-29T01:35:38;9.77;;;8.70;;
27365;SDS011;14837;57.148;-2.144;2022-07-29T01:38:10;12.05;;;10.57;;
27365;SDS011;14837;57.148;-2.144;2022-07-29T01:41:12;9.68;;;8.68;;
27365;SDS011;14837;57.148;-2.144;2022-07-29T01:43:53;11.32;;;9.93;;
27365;SDS011;14837;57.148;-2.144;2022-07-29T01:46:21;11.35;;;10.15;;
27365;SDS011;14837;57.148;-2.144;2022-07-29T01:48:55;15.93;;;10.98;;
27365;SDS011;14837;57.148;-2.144;2022-07-29T01:51:33;12.48;;;9.95;;
27365;SDS011;14837;57.148;-2.144;2022-07-29T01:54:02;14.43;;;11.35;;
27365;SDS011;14837;57.148;-2.144;2022-07-29T01:56:30;11.68;;;10.15;;
27365;SDS011;14837;57.148;-2.144;2022-07-29T01:59:00;11.10;;;9.63;;
27365;SDS011;14837;57.148;-2.144;2022-07-29T02:01:30;13.05;;;9.35;;
27365;SDS011;14837;57.148;-2.144;2022-07-29T02:03:57;10.60;;;9.55;;
27365;SDS011;14837;57.148;-2.144;2022-07-29T02:06:25;13.65;;;9.60;;
27365;SDS011;14837;57.148;-2.144;2022-07-29T02:08:53;11.90;;;10.68;;
27365;SDS011;14837;57.148;-2.144;2022-07-29T02:11:22;11.18;;;10.05;;
27365;SDS011;14837;57.148;-2.144;2022-07-29T02:13:48;10.40;;;9.30;;
27365;SDS011;14837;57.148;-2.144;2022-07-29T02:16:15;11.45;;;10.27;;
27365;SDS011;14837;57.148;-2.144;2022-07-29T02:18:43;11.02;;;9.77;;
27365;SDS011;14837;57.148;-2.144;2022-07-29T02:21:11;14.25;;;9.82;;
27365;SDS011;14837;57.148;-2.144;2022-07-29T02:23:41;10.88;;;9.75;;
27365;SDS011;14837;57.148;-2.144;2022-07-29T02:26:16;12.13;;;8.57;;
27365;SDS011;14837;57.148;-2.144;2022-07-29T02:28:43;9.18;;;8.05;;
27365;SDS011;14837;57.148;-2.144;2022-07-29T02:31:11;8.27;;;7.43;;
27365;SDS011;14837;57.148;-2.144;2022-07-29T02:33:38;10.38;;;9.23;;
27365;SDS011;14837;57.148;-2.144;2022-07-29T02:36:07;9.93;;;8.93;;
27365;SDS011;14837;57.148;-2.144;2022-07-29T02:38:33;9.68;;;8.68;;
27365;SDS011;14837;57.148;-2.144;2022-07-29T02:41:18;9.38;;;8.38;;
27365;SDS011;14837;57.148;-2.144;2022-07-29T02:43:50;9.13;;;8.15;;
27365;SDS011;14837;57.148;-2.144;2022-07-29T02:46:21;9.13;;;8.23;;
27365;SDS011;14837;57.148;-2.144;2022-07-29T02:49:14;10.13;;;8.57;;
27365;SDS011;14837;57.148;-2.144;2022-07-29T02:51:46;10.80;;;8.25;;
27365;SDS011;14837;57.148;-2.144;2022-07-29T02:54:17;10.07;;;9.07;;
27365;SDS011;14837;57.148;-2.144;2022-07-29T02:56:45;7.18;;;6.47;;
27365;SDS011;14837;57.148;-2.144;2022-07-29T02:59:12;9.63;;;8.40;;
27365;SDS011;14837;57.148;-2.144;2022-07-29T03:01:41;8.93;;;7.80;;
27365;SDS011;14837;57.148;-2.144;2022-07-29T03:04:09;8.77;;;7.55;;
27365;SDS011;14837;57.148;-2.144;2022-07-29T03:06:38;8.18;;;7.38;;
27365;SDS011;14837;57.148;-2.144;2022-07-29T03:09:06;8.40;;;7.03;;
27365;SDS011;14837;57.148;-2.144;2022-07-29T03:11:38;8.85;;;6.60;;
27365;SDS011;14837;57.148;-2.144;2022-07-29T03:14:19;7.15;;;6.45;;
27365;SDS011;14837;57.148;-2.144;2022-07-29T03:16:46;9.00;;;7.07;;
27365;SDS011;14837;57.148;-2.144;2022-07-29T03:19:13;8.32;;;7.22;;
27365;SDS011;14837;57.148;-2.144;2022-07-29T03:21:40;7.57;;;6.88;;
27365;SDS011;14837;57.148;-2.144;2022-07-29T03:24:07;7.22;;;6.50;;
27365;SDS011;14837;57.148;-2.144;2022-07-29T03:26:37;7.82;;;7.13;;
27365;SDS011;14837;57.148;-2.144;2022-07-29T03:29:04;8.35;;;6.25;;
27365;SDS011;14837;57.148;-2.144;2022-07-29T03:31:32;5.85;;;5.15;;
27365;SDS011;14837;57.148;-2.144;2022-07-29T03:33:59;7.10;;;5.78;;
27365;SDS011;14837;57.148;-2.144;2022-07-29T03:36:26;6.68;;;5.90;;
27365;SDS011;14837;57.148;-2.144;2022-07-29T03:38:52;8.57;;;5.72;;
27365;SDS011;14837;57.148;-2.144;2022-07-29T03:41:19;5.97;;;5.38;;
27365;SDS011;14837;57.148;-2.144;2022-07-29T03:43:49;6.45;;;5.78;;
27365;SDS011;14837;57.148;-2.144;2022-07-29T03:46:15;12.82;;;7.57;;
27365;SDS011;14837;57.148;-2.144;2022-07-29T03:48:44;9.52;;;6.80;;
27365;SDS011;14837;57.148;-2.144;2022-07-29T03:51:13;8.00;;;7.18;;
27365;SDS011;14837;57.148;-2.144;2022-07-29T03:53:39;7.53;;;6.63;;
27365;SDS011;14837;57.148;-2.144;2022-07-29T03:56:06;8.02;;;6.40;;
27365;SDS011;14837;57.148;-2.144;2022-07-29T03:58:33;7.50;;;6.25;;
27365;SDS011;14837;57.148;-2.144;2022-07-29T04:01:00;7.18;;;6.47;;
27365;SDS011;14837;57.148;-2.144;2022-07-29T04:03:27;10.40;;;7.03;;
27365;SDS011;14837;57.148;-2.144;2022-07-29T04:06:05;7.32;;;6.60;;
27365;SDS011;14837;57.148;-2.144;2022-07-29T04:08:32;7.47;;;6.63;;
27365;SDS011;14837;57.148;-2.144;2022-07-29T04:10:59;9.60;;;7.78;;
27365;SDS011;14837;57.148;-2.144;2022-07-29T04:13:26;10.18;;;7.80;;
27365;SDS011;14837;57.148;-2.144;2022-07-29T04:15:52;9.85;;;7.57;;
27365;SDS011;14837;57.148;-2.144;2022-07-29T04:18:19;10.68;;;7.93;;
27365;SDS011;14837;57.148;-2.144;2022-07-29T04:20:45;10.00;;;8.32;;
27365;SDS011;14837;57.148;-2.144;2022-07-29T04:23:12;10.65;;;9.50;;
27365;SDS011;14837;57.148;-2.144;2022-07-29T04:25:39;10.02;;;8.27;;
27365;SDS011;14837;57.148;-2.144;2022-07-29T04:28:06;9.30;;;8.30;;
27365;SDS011;14837;57.148;-2.144;2022-07-29T04:30:33;11.25;;;9.15;;
27365;SDS011;14837;57.148;-2.144;2022-07-29T04:33:01;12.40;;;9.63;;
27365;SDS011;14837;57.148;-2.144;2022-07-29T04:35:28;11.73;;;8.85;;
27365;SDS011;14837;57.148;-2.144;2022-07-29T04:37:55;9.93;;;8.88;;
27365;SDS011;14837;57.148;-2.144;2022-07-29T04:40:21;12.70;;;8.80;;
27365;SDS011;14837;57.148;-2.144;2022-07-29T04:42:48;13.50;;;10.43;;
27365;SDS011;14837;57.148;-2.144;2022-07-29T04:45:14;10.00;;;8.43;;
27365;SDS011;14837;57.148;-2.144;2022-07-29T04:47:41;14.18;;;10.70;;
27365;SDS011;14837;57.148;-2.144;2022-07-29T04:50:08;13.05;;;9.55;;
27365;SDS011;14837;57.148;-2.144;2022-07-29T04:52:35;13.82;;;9.73;;
27365;SDS011;14837;57.148;-2.144;2022-07-29T04:55:02;10.93;;;9.82;;
27365;SDS011;14837;57.148;-2.144;2022-07-29T04:57:29;11.20;;;9.95;;
27365;SDS011;14837;57.148;-2.144;2022-07-29T04:59:55;10.05;;;8.88;;
27365;SDS011;14837;57.148;-2.144;2022-07-29T05:02:22;15.57;;;10.32;;
27365;SDS011;14837;57.148;-2.144;2022-07-29T05:04:49;12.27;;;9.88;;
27365;SDS011;14837;57.148;-2.144;2022-07-29T05:07:15;13.05;;;8.57;;
27365;SDS011;14837;57.148;-2.144;2022-07-29T05:09:42;10.68;;;8.93;;
27365;SDS011;14837;57.148;-2.144;2022-07-29T05:12:08;15.10;;;7.82;;
27365;SDS011;14837;57.148;-2.144;2022-07-29T05:14:35;11.18;;;8.38;;
27365;SDS011;14837;57.148;-2.144;2022-07-29T05:17:02;11.45;;;7.45;;
27365;SDS011;14837;57.148;-2.144;2022-07-29T05:19:28;9.60;;;6.57;;
27365;SDS011;14837;57.148;-2.144;2022-07-29T05:21:55;7.53;;;6.45;;
27365;SDS011;14837;57.148;-2.144;2022-07-29T05:24:22;11.52;;;6.82;;
27365;SDS011;14837;57.148;-2.144;2022-07-29T05:26:48;13.43;;;6.93;;
27365;SDS011;14837;57.148;-2.144;2022-07-29T05:29:15;12.55;;;6.13;;
27365;SDS011;14837;57.148;-2.144;2022-07-29T05:32:02;13.43;;;6.90;;
27365;SDS011;14837;57.148;-2.144;2022-07-29T05:34:28;10.82;;;7.57;;
27365;SDS011;14837;57.148;-2.144;2022-07-29T05:36:55;16.02;;;7.72;;
27365;SDS011;14837;57.148;-2.144;2022-07-29T05:39:22;10.00;;;7.13;;
27365;SDS011;14837;57.148;-2.144;2022-07-29T05:42:09;9.25;;;6.07;;
27365;SDS011;14837;57.148;-2.144;2022-07-29T05:44:36;11.65;;;6.20;;
27365;SDS011;14837;57.148;-2.144;2022-07-29T05:47:03;9.50;;;6.28;;
27365;SDS011;14837;57.148;-2.144;2022-07-29T05:49:29;10.55;;;6.78;;
27365;SDS011;14837;57.148;-2.144;2022-07-29T05:51:56;9.57;;;6.22;;
27365;SDS011;14837;57.148;-2.144;2022-07-29T05:54:23;8.98;;;5.57;;
27365;SDS011;14837;57.148;-2.144;2022-07-29T05:56:49;8.15;;;5.90;;
27365;SDS011;14837;57.148;-2.144;2022-07-29T05:59:16;8.40;;;5.88;;
27365;SDS011;14837;57.148;-2.144;2022-07-29T06:01:43;9.23;;;5.55;;
27365;SDS011;14837;57.148;-2.144;2022-07-29T06:04:10;8.25;;;5.47;;
27365;SDS011;14837;57.148;-2.144;2022-07-29T06:06:36;7.72;;;5.43;;
27365;SDS011;14837;57.148;-2.144;2022-07-29T06:09:03;11.95;;;5.65;;
27365;SDS011;14837;57.148;-2.144;2022-07-29T06:11:38;12.07;;;6.47;;
27365;SDS011;14837;57.148;-2.144;2022-07-29T06:14:04;7.50;;;4.85;;
27365;SDS011;14837;57.148;-2.144;2022-07-29T06:16:31;7.35;;;4.65;;
27365;SDS011;14837;57.148;-2.144;2022-07-29T06:18:58;10.48;;;4.63;;
27365;SDS011;14837;57.148;-2.144;2022-07-29T06:21:24;8.82;;;5.40;;
27365;SDS011;14837;57.148;-2.144;2022-07-29T06:23:51;7.78;;;5.10;;
27365;SDS011;14837;57.148;-2.144;2022-07-29T06:26:17;15.05;;;4.85;;
27365;SDS011;14837;57.148;-2.144;2022-07-29T06:28:56;11.13;;;5.00;;
27365;SDS011;14837;57.148;-2.144;2022-07-29T06:31:22;11.82;;;5.47;;
27365;SDS011;14837;57.148;-2.144;2022-07-29T06:33:49;5.75;;;4.07;;
27365;SDS011;14837;57.148;-2.144;2022-07-29T06:36:15;12.23;;;5.00;;
27365;SDS011;14837;57.148;-2.144;2022-07-29T06:38:42;6.93;;;4.38;;
27365;SDS011;14837;57.148;-2.144;2022-07-29T06:43:43;10.48;;;5.30;;
27365;SDS011;14837;57.148;-2.144;2022-07-29T06:46:19;11.35;;;4.93;;
27365;SDS011;14837;57.148;-2.144;2022-07-29T06:48:47;12.93;;;5.43;;
27365;SDS011;14837;57.148;-2.144;2022-07-29T06:51:14;7.32;;;4.22;;
27365;SDS011;14837;57.148;-2.144;2022-07-29T06:53:41;7.43;;;4.57;;
27365;SDS011;14837;57.148;-2.144;2022-07-29T06:56:28;7.07;;;3.88;;
27365;SDS011;14837;57.148;-2.144;2022-07-29T06:58:55;8.73;;;6.00;;
27365;SDS011;14837;57.148;-2.144;2022-07-29T07:01:22;11.88;;;4.20;;
27365;SDS011;14837;57.148;-2.144;2022-07-29T07:03:48;8.00;;;4.75;;
27365;SDS011;14837;57.148;-2.144;2022-07-29T07:06:15;7.82;;;4.55;;
27365;SDS011;14837;57.148;-2.144;2022-07-29T07:08:42;14.30;;;5.28;;
27365;SDS011;14837;57.148;-2.144;2022-07-29T07:11:09;7.85;;;4.43;;
27365;SDS011;14837;57.148;-2.144;2022-07-29T07:13:35;10.48;;;5.47;;
27365;SDS011;14837;57.148;-2.144;2022-07-29T07:16:02;6.60;;;4.03;;
27365;SDS011;14837;57.148;-2.144;2022-07-29T07:18:29;9.45;;;5.10;;
27365;SDS011;14837;57.148;-2.144;2022-07-29T07:20:56;9.02;;;5.53;;
27365;SDS011;14837;57.148;-2.144;2022-07-29T07:23:23;7.32;;;4.53;;
27365;SDS011;14837;57.148;-2.144;2022-07-29T07:25:50;7.35;;;4.68;;
27365;SDS011;14837;57.148;-2.144;2022-07-29T07:28:17;9.80;;;4.45;;
27365;SDS011;14837;57.148;-2.144;2022-07-29T07:30:49;8.05;;;4.93;;
27365;SDS011;14837;57.148;-2.144;2022-07-29T07:33:16;5.50;;;4.65;;
27365;SDS011;14837;57.148;-2.144;2022-07-29T07:35:43;7.13;;;4.38;;
27365;SDS011;14837;57.148;-2.144;2022-07-29T07:38:10;7.20;;;4.28;;
27365;SDS011;14837;57.148;-2.144;2022-07-29T07:40:37;7.78;;;3.83;;
27365;SDS011;14837;57.148;-2.144;2022-07-29T07:43:03;9.77;;;4.78;;
27365;SDS011;14837;57.148;-2.144;2022-07-29T07:45:30;7.15;;;4.57;;
27365;SDS011;14837;57.148;-2.144;2022-07-29T07:47:58;9.57;;;4.20;;
27365;SDS011;14837;57.148;-2.144;2022-07-29T07:50:25;9.18;;;3.88;;
27365;SDS011;14837;57.148;-2.144;2022-07-29T07:52:53;8.57;;;4.40;;
27365;SDS011;14837;57.148;-2.144;2022-07-29T07:55:21;7.50;;;5.63;;
27365;SDS011;14837;57.148;-2.144;2022-07-29T07:57:47;7.88;;;4.80;;
27365;SDS011;14837;57.148;-2.144;2022-07-29T08:00:14;8.68;;;4.20;;
27365;SDS011;14837;57.148;-2.144;2022-07-29T08:02:42;8.77;;;4.60;;
27365;SDS011;14837;57.148;-2.144;2022-07-29T08:05:09;9.65;;;4.95;;
27365;SDS011;14837;57.148;-2.144;2022-07-29T08:07:38;8.38;;;4.55;;
27365;SDS011;14837;57.148;-2.144;2022-07-29T08:10:04;7.43;;;4.05;;
27365;SDS011;14837;57.148;-2.144;2022-07-29T08:12:31;6.25;;;4.30;;
27365;SDS011;14837;57.148;-2.144;2022-07-29T08:14:58;10.65;;;5.10;;
27365;SDS011;14837;57.148;-2.144;2022-07-29T08:17:24;5.88;;;3.95;;
27365;SDS011;14837;57.148;-2.144;2022-07-29T08:19:52;4.63;;;3.15;;
27365;SDS011;14837;57.148;-2.144;2022-07-29T08:22:19;6.85;;;4.05;;
27365;SDS011;14837;57.148;-2.144;2022-07-29T08:24:46;5.55;;;4.25;;
27365;SDS011;14837;57.148;-2.144;2022-07-29T08:27:20;9.43;;;3.80;;
27365;SDS011;14837;57.148;-2.144;2022-07-29T08:30:07;5.97;;;2.97;;
27365;SDS011;14837;57.148;-2.144;2022-07-29T08:32:34;6.07;;;3.33;;
27365;SDS011;14837;57.148;-2.144;2022-07-29T08:35:21;7.05;;;3.28;;
27365;SDS011;14837;57.148;-2.144;2022-07-29T08:37:47;6.82;;;2.28;;
27365;SDS011;14837;57.148;-2.144;2022-07-29T08:40:14;5.70;;;3.30;;
27365;SDS011;14837;57.148;-2.144;2022-07-29T08:42:41;4.88;;;2.38;;
27365;SDS011;14837;57.148;-2.144;2022-07-29T08:45:08;6.15;;;2.97;;
27365;SDS011;14837;57.148;-2.144;2022-07-29T08:47:35;4.30;;;2.50;;
27365;SDS011;14837;57.148;-2.144;2022-07-29T08:50:09;6.15;;;2.78;;
27365;SDS011;14837;57.148;-2.144;2022-07-29T08:52:36;3.83;;;2.08;;
27365;SDS011;14837;57.148;-2.144;2022-07-29T08:55:06;4.50;;;2.03;;
27365;SDS011;14837;57.148;-2.144;2022-07-29T08:57:34;7.18;;;2.45;;
27365;SDS011;14837;57.148;-2.144;2022-07-29T09:00:04;6.32;;;2.60;;
27365;SDS011;14837;57.148;-2.144;2022-07-29T09:02:39;7.60;;;2.22;;
27365;SDS011;14837;57.148;-2.144;2022-07-29T09:05:05;6.95;;;2.15;;
27365;SDS011;14837;57.148;-2.144;2022-07-29T09:07:33;5.97;;;2.53;;
27365;SDS011;14837;57.148;-2.144;2022-07-29T09:10:01;5.07;;;2.17;;
27365;SDS011;14837;57.148;-2.144;2022-07-29T09:12:28;10.27;;;2.30;;
27365;SDS011;14837;57.148;-2.144;2022-07-29T09:14:59;7.45;;;2.05;;
27365;SDS011;14837;57.148;-2.144;2022-07-29T09:17:39;4.93;;;2.00;;
27365;SDS011;14837;57.148;-2.144;2022-07-29T09:20:10;5.22;;;2.35;;
27365;SDS011;14837;57.148;-2.144;2022-07-29T09:22:37;5.97;;;2.25;;
27365;SDS011;14837;57.148;-2.144;2022-07-29T09:25:07;7.00;;;2.65;;
27365;SDS011;14837;57.148;-2.144;2022-07-29T09:27:34;5.82;;;2.58;;
27365;SDS011;14837;57.148;-2.144;2022-07-29T09:30:02;6.30;;;2.15;;
27365;SDS011;14837;57.148;-2.144;2022-07-29T09:32:30;6.35;;;2.85;;
27365;SDS011;14837;57.148;-2.144;2022-07-29T09:37:43;3.55;;;2.22;;
27365;SDS011;14837;57.148;-2.144;2022-07-29T09:40:16;5.80;;;2.25;;
27365;SDS011;14837;57.148;-2.144;2022-07-29T09:42:43;5.47;;;3.20;;
27365;SDS011;14837;57.148;-2.144;2022-07-29T09:45:10;4.93;;;2.63;;
27365;SDS011;14837;57.148;-2.144;2022-07-29T09:47:44;5.20;;;2.38;;
27365;SDS011;14837;57.148;-2.144;2022-07-29T09:50:11;6.38;;;2.60;;
27365;SDS011;14837;57.148;-2.144;2022-07-29T09:52:45;4.85;;;2.13;;
27365;SDS011;14837;57.148;-2.144;2022-07-29T09:55:25;3.90;;;2.40;;
27365;SDS011;14837;57.148;-2.144;2022-07-29T09:57:52;5.78;;;2.97;;
27365;SDS011;14837;57.148;-2.144;2022-07-29T10:00:19;6.22;;;2.75;;
27365;SDS011;14837;57.148;-2.144;2022-07-29T10:02:48;4.35;;;2.40;;
27365;SDS011;14837;57.148;-2.144;2022-07-29T10:05:25;6.75;;;2.70;;
27365;SDS011;14837;57.148;-2.144;2022-07-29T10:08:01;4.45;;;2.30;;
27365;SDS011;14837;57.148;-2.144;2022-07-29T10:10:32;4.80;;;2.25;;
27365;SDS011;14837;57.148;-2.144;2022-07-29T10:13:03;5.47;;;2.25;;
27365;SDS011;14837;57.148;-2.144;2022-07-29T10:15:37;6.68;;;2.95;;
27365;SDS011;14837;57.148;-2.144;2022-07-29T10:18:05;5.75;;;2.55;;
27365;SDS011;14837;57.148;-2.144;2022-07-29T10:20:32;4.15;;;2.30;;
27365;SDS011;14837;57.148;-2.144;2022-07-29T10:22:59;4.10;;;2.22;;
27365;SDS011;14837;57.148;-2.144;2022-07-29T10:25:25;3.25;;;2.25;;
27365;SDS011;14837;57.148;-2.144;2022-07-29T10:27:53;3.97;;;1.95;;
27365;SDS011;14837;57.148;-2.144;2022-07-29T10:30:20;5.22;;;2.47;;
27365;SDS011;14837;57.148;-2.144;2022-07-29T10:43:27;5.38;;;3.03;;
27365;SDS011;14837;57.148;-2.144;2022-07-29T10:45:56;6.20;;;2.58;;
27365;SDS011;14837;57.148;-2.144;2022-07-29T10:48:22;5.28;;;2.30;;
27365;SDS011;14837;57.148;-2.144;2022-07-29T10:50:53;5.90;;;2.67;;
27365;SDS011;14837;57.148;-2.144;2022-07-29T10:53:23;4.30;;;1.73;;
27365;SDS011;14837;57.148;-2.144;2022-07-29T10:55:53;3.95;;;2.10;;
27365;SDS011;14837;57.148;-2.144;2022-07-29T10:58:20;4.13;;;1.77;;
27365;SDS011;14837;57.148;-2.144;2022-07-29T11:00:48;3.38;;;1.77;;
27365;SDS011;14837;57.148;-2.144;2022-07-29T11:04:01;6.28;;;2.78;;
27365;SDS011;14837;57.148;-2.144;2022-07-29T11:06:03;5.30;;;2.55;;
27365;SDS011;14837;57.148;-2.144;2022-07-29T11:08:33;6.88;;;2.60;;
27365;SDS011;14837;57.148;-2.144;2022-07-29T11:13:48;5.05;;;2.70;;
27365;SDS011;14837;57.148;-2.144;2022-07-29T11:16:18;6.50;;;2.28;;
27365;SDS011;14837;57.148;-2.144;2022-07-29T11:21:55;4.10;;;2.70;;
27365;SDS011;14837;57.148;-2.144;2022-07-29T11:24:25;4.38;;;1.95;;
27365;SDS011;14837;57.148;-2.144;2022-07-29T11:32:15;5.07;;;2.50;;
27365;SDS011;14837;57.148;-2.144;2022-07-29T11:35:19;4.35;;;2.13;;
27365;SDS011;14837;57.148;-2.144;2022-07-29T11:38:24;5.38;;;2.20;;
27365;SDS011;14837;57.148;-2.144;2022-07-29T11:43:45;2.92;;;2.17;;
27365;SDS011;14837;57.148;-2.144;2022-07-29T11:46:15;3.63;;;1.67;;
27365;SDS011;14837;57.148;-2.144;2022-07-29T11:48:50;4.90;;;2.08;;
27365;SDS011;14837;57.148;-2.144;2022-07-29T11:51:17;4.03;;;1.98;;
27365;SDS011;14837;57.148;-2.144;2022-07-29T11:53:58;3.03;;;2.10;;
27365;SDS011;14837;57.148;-2.144;2022-07-29T11:56:45;4.82;;;2.20;;
27365;SDS011;14837;57.148;-2.144;2022-07-29T11:59:12;4.75;;;2.08;;
27365;SDS011;14837;57.148;-2.144;2022-07-29T12:01:51;3.30;;;2.13;;
27365;SDS011;14837;57.148;-2.144;2022-07-29T12:04:51;3.80;;;2.00;;
27365;SDS011;14837;57.148;-2.144;2022-07-29T12:07:18;2.78;;;2.00;;
27365;SDS011;14837;57.148;-2.144;2022-07-29T12:09:51;5.82;;;2.08;;
27365;SDS011;14837;57.148;-2.144;2022-07-29T12:12:22;4.32;;;2.38;;
27365;SDS011;14837;57.148;-2.144;2022-07-29T12:14:49;2.88;;;2.25;;
27365;SDS011;14837;57.148;-2.144;2022-07-29T12:17:26;3.78;;;2.35;;
27365;SDS011;14837;57.148;-2.144;2022-07-29T12:19:59;4.63;;;1.88;;
27365;SDS011;14837;57.148;-2.144;2022-07-29T12:22:38;5.10;;;2.22;;
27365;SDS011;14837;57.148;-2.144;2022-07-29T12:25:07;5.10;;;2.05;;
27365;SDS011;14837;57.148;-2.144;2022-07-29T12:27:59;3.85;;;2.13;;
27365;SDS011;14837;57.148;-2.144;2022-07-29T12:30:43;5.00;;;2.40;;
27365;SDS011;14837;57.148;-2.144;2022-07-29T12:33:11;4.35;;;2.47;;
27365;SDS011;14837;57.148;-2.144;2022-07-29T12:35:38;3.35;;;1.80;;
27365;SDS011;14837;57.148;-2.144;2022-07-29T12:38:05;5.38;;;2.67;;
27365;SDS011;14837;57.148;-2.144;2022-07-29T12:40:31;4.57;;;2.40;;
27365;SDS011;14837;57.148;-2.144;2022-07-29T12:45:55;6.22;;;2.53;;
27365;SDS011;14837;57.148;-2.144;2022-07-29T12:48:36;4.65;;;2.88;;
27365;SDS011;14837;57.148;-2.144;2022-07-29T12:51:03;5.65;;;2.33;;
27365;SDS011;14837;57.148;-2.144;2022-07-29T12:53:30;4.30;;;2.75;;
27365;SDS011;14837;57.148;-2.144;2022-07-29T12:55:57;4.78;;;2.35;;
27365;SDS011;14837;57.148;-2.144;2022-07-29T12:58:41;3.65;;;2.42;;
27365;SDS011;14837;57.148;-2.144;2022-07-29T13:09:13;3.15;;;2.20;;
27365;SDS011;14837;57.148;-2.144;2022-07-29T13:11:41;6.13;;;2.78;;
27365;SDS011;14837;57.148;-2.144;2022-07-29T13:14:20;4.75;;;2.67;;
27365;SDS011;14837;57.148;-2.144;2022-07-29T13:17:11;7.13;;;2.80;;
27365;SDS011;14837;57.148;-2.144;2022-07-29T13:19:39;8.10;;;2.90;;
27365;SDS011;14837;57.148;-2.144;2022-07-29T13:22:09;5.60;;;2.60;;
27365;SDS011;14837;57.148;-2.144;2022-07-29T13:24:49;5.60;;;3.25;;
27365;SDS011;14837;57.148;-2.144;2022-07-29T13:27:20;6.47;;;3.10;;
27365;SDS011;14837;57.148;-2.144;2022-07-29T13:29:47;7.20;;;3.60;;
27365;SDS011;14837;57.148;-2.144;2022-07-29T13:32:14;7.20;;;3.08;;
27365;SDS011;14837;57.148;-2.144;2022-07-29T13:34:41;5.80;;;3.03;;
27365;SDS011;14837;57.148;-2.144;2022-07-29T13:37:08;4.35;;;2.97;;
27365;SDS011;14837;57.148;-2.144;2022-07-29T13:39:34;5.55;;;3.15;;
27365;SDS011;14837;57.148;-2.144;2022-07-29T13:42:01;3.95;;;3.10;;
27365;SDS011;14837;57.148;-2.144;2022-07-29T13:44:27;6.88;;;3.75;;
27365;SDS011;14837;57.148;-2.144;2022-07-29T13:46:54;10.45;;;3.85;;
27365;SDS011;14837;57.148;-2.144;2022-07-29T13:49:21;8.70;;;3.63;;
27365;SDS011;14837;57.148;-2.144;2022-07-29T13:51:49;7.25;;;3.47;;
27365;SDS011;14837;57.148;-2.144;2022-07-29T13:54:16;4.93;;;2.72;;
27365;SDS011;14837;57.148;-2.144;2022-07-29T13:56:42;6.13;;;2.85;;
27365;SDS011;14837;57.148;-2.144;2022-07-29T13:59:11;4.70;;;2.97;;
27365;SDS011;14837;57.148;-2.144;2022-07-29T14:01:38;7.22;;;3.17;;
27365;SDS011;14837;57.148;-2.144;2022-07-29T14:04:08;5.55;;;2.92;;
27365;SDS011;14837;57.148;-2.144;2022-07-29T14:06:37;5.10;;;3.00;;
27365;SDS011;14837;57.148;-2.144;2022-07-29T14:09:06;7.43;;;2.92;;
27365;SDS011;14837;57.148;-2.144;2022-07-29T14:11:35;4.70;;;2.40;;
27365;SDS011;14837;57.148;-2.144;2022-07-29T14:14:01;8.13;;;2.83;;
27365;SDS011;14837;57.148;-2.144;2022-07-29T14:16:28;5.07;;;2.83;;
27365;SDS011;14837;57.148;-2.144;2022-07-29T14:18:54;5.18;;;2.70;;
27365;SDS011;14837;57.148;-2.144;2022-07-29T14:21:21;6.60;;;2.97;;
27365;SDS011;14837;57.148;-2.144;2022-07-29T14:23:47;9.20;;;3.45;;
27365;SDS011;14837;57.148;-2.144;2022-07-29T14:26:14;9.45;;;4.18;;
27365;SDS011;14837;57.148;-2.144;2022-07-29T14:28:49;5.05;;;3.63;;
27365;SDS011;14837;57.148;-2.144;2022-07-29T14:31:15;8.35;;;3.47;;
27365;SDS011;14837;57.148;-2.144;2022-07-29T14:33:42;7.60;;;3.55;;
27365;SDS011;14837;57.148;-2.144;2022-07-29T14:36:11;6.55;;;3.35;;
27365;SDS011;14837;57.148;-2.144;2022-07-29T14:38:38;6.10;;;2.83;;
27365;SDS011;14837;57.148;-2.144;2022-07-29T14:41:05;6.90;;;2.88;;
27365;SDS011;14837;57.148;-2.144;2022-07-29T14:43:32;6.82;;;3.75;;
27365;SDS011;14837;57.148;-2.144;2022-07-29T14:45:58;8.90;;;3.92;;
27365;SDS011;14837;57.148;-2.144;2022-07-29T14:48:31;10.88;;;4.20;;
27365;SDS011;14837;57.148;-2.144;2022-07-29T14:50:58;6.40;;;4.05;;
27365;SDS011;14837;57.148;-2.144;2022-07-29T14:53:30;6.78;;;3.58;;
27365;SDS011;14837;57.148;-2.144;2022-07-29T14:55:56;5.75;;;3.22;;
27365;SDS011;14837;57.148;-2.144;2022-07-29T14:58:43;7.35;;;3.60;;
27365;SDS011;14837;57.148;-2.144;2022-07-29T15:03:43;9.98;;;3.60;;
27365;SDS011;14837;57.148;-2.144;2022-07-29T15:06:10;8.70;;;3.45;;
27365;SDS011;14837;57.148;-2.144;2022-07-29T15:08:36;9.48;;;4.43;;
27365;SDS011;14837;57.148;-2.144;2022-07-29T15:11:03;7.50;;;3.83;;
27365;SDS011;14837;57.148;-2.144;2022-07-29T15:13:29;5.32;;;3.85;;
27365;SDS011;14837;57.148;-2.144;2022-07-29T15:15:56;8.32;;;3.25;;
27365;SDS011;14837;57.148;-2.144;2022-07-29T15:18:25;5.25;;;3.20;;
27365;SDS011;14837;57.148;-2.144;2022-07-29T15:20:52;10.43;;;3.30;;
27365;SDS011;14837;57.148;-2.144;2022-07-29T15:23:19;6.75;;;3.22;;
27365;SDS011;14837;57.148;-2.144;2022-07-29T15:25:45;8.32;;;3.45;;
27365;SDS011;14837;57.148;-2.144;2022-07-29T15:28:12;13.57;;;3.65;;
27365;SDS011;14837;57.148;-2.144;2022-07-29T15:30:39;6.30;;;3.33;;
27365;SDS011;14837;57.148;-2.144;2022-07-29T15:33:08;4.57;;;3.33;;
27365;SDS011;14837;57.148;-2.144;2022-07-29T15:35:36;7.78;;;3.85;;
27365;SDS011;14837;57.148;-2.144;2022-07-29T15:38:06;4.68;;;2.75;;